KLGA

La Guardia Airport

Code ICAO KLGA
Code IATA LGA
Nom La Guardia Airport
Emplacement New York, New-York, US
Élévation 21 pieds / 6.4 mètres
Latitude 40.77719879
Longitude -73.87259674
METAR KLGA 090951Z 31017G24KT 10SM FEW030 02/M06 A3010 RMK AO2 PK WND 31029/0856 SLP191 T00171061
Informations extras Afficher cartes et CFS
Afficher NOTAMS
Piste Longueur Largeur Surface Élévation
04 7000 ft 150 ft ASP 22 ft
13 7000 ft 150 ft ASP 13 ft
22 7000 ft 150 ft ASP 13 ft
31 7000 ft 150 ft ASP 8 ft